sensor_id;sensor_type;location;lat;lon;timestamp;P1;durP1;ratioP1;P2;durP2;ratioP2
12511;SDS011;6321;53.798;10.382;2023-04-15T00:00:36;9.27;;;5.83;;
12511;SDS011;6321;53.798;10.382;2023-04-15T00:03:02;9.20;;;5.90;;
12511;SDS011;6321;53.798;10.382;2023-04-15T00:05:29;7.07;;;6.10;;
12511;SDS011;6321;53.798;10.382;2023-04-15T00:07:55;8.63;;;6.07;;
12511;SDS011;6321;53.798;10.382;2023-04-15T00:10:22;8.00;;;6.27;;
12511;SDS011;6321;53.798;10.382;2023-04-15T00:12:48;7.33;;;6.03;;
12511;SDS011;6321;53.798;10.382;2023-04-15T00:15:14;7.87;;;6.30;;
12511;SDS011;6321;53.798;10.382;2023-04-15T00:17:41;8.03;;;6.40;;
12511;SDS011;6321;53.798;10.382;2023-04-15T00:20:07;7.40;;;6.53;;
12511;SDS011;6321;53.798;10.382;2023-04-15T00:22:33;8.40;;;6.30;;
12511;SDS011;6321;53.798;10.382;2023-04-15T00:24:59;8.67;;;7.30;;
12511;SDS011;6321;53.798;10.382;2023-04-15T00:27:25;8.47;;;6.77;;
12511;SDS011;6321;53.798;10.382;2023-04-15T00:29:51;9.60;;;7.33;;
12511;SDS011;6321;53.798;10.382;2023-04-15T00:32:17;9.40;;;7.27;;
12511;SDS011;6321;53.798;10.382;2023-04-15T00:34:44;10.40;;;7.40;;
12511;SDS011;6321;53.798;10.382;2023-04-15T00:37:10;10.17;;;7.33;;
12511;SDS011;6321;53.798;10.382;2023-04-15T00:39:36;9.93;;;7.57;;
12511;SDS011;6321;53.798;10.382;2023-04-15T00:42:03;12.10;;;8.17;;
12511;SDS011;6321;53.798;10.382;2023-04-15T00:44:29;9.87;;;8.40;;
12511;SDS011;6321;53.798;10.382;2023-04-15T00:46:56;11.40;;;8.53;;
12511;SDS011;6321;53.798;10.382;2023-04-15T00:49:23;11.83;;;8.40;;
12511;SDS011;6321;53.798;10.382;2023-04-15T00:51:49;11.23;;;8.63;;
12511;SDS011;6321;53.798;10.382;2023-04-15T00:54:15;9.80;;;8.37;;
12511;SDS011;6321;53.798;10.382;2023-04-15T00:56:41;13.27;;;9.47;;
12511;SDS011;6321;53.798;10.382;2023-04-15T00:59:08;13.27;;;9.73;;
12511;SDS011;6321;53.798;10.382;2023-04-15T01:01:35;12.77;;;8.57;;
12511;SDS011;6321;53.798;10.382;2023-04-15T01:04:01;14.40;;;9.63;;
12511;SDS011;6321;53.798;10.382;2023-04-15T01:06:28;13.43;;;10.03;;
12511;SDS011;6321;53.798;10.382;2023-04-15T01:08:54;13.70;;;10.00;;
12511;SDS011;6321;53.798;10.382;2023-04-15T01:11:20;14.60;;;9.93;;
12511;SDS011;6321;53.798;10.382;2023-04-15T01:13:48;15.83;;;11.37;;
12511;SDS011;6321;53.798;10.382;2023-04-15T01:16:14;16.33;;;10.93;;
12511;SDS011;6321;53.798;10.382;2023-04-15T01:18:41;16.20;;;11.77;;
12511;SDS011;6321;53.798;10.382;2023-04-15T01:21:07;16.40;;;11.23;;
12511;SDS011;6321;53.798;10.382;2023-04-15T01:23:34;15.70;;;12.03;;
12511;SDS011;6321;53.798;10.382;2023-04-15T01:26:04;17.63;;;11.97;;
12511;SDS011;6321;53.798;10.382;2023-04-15T01:28:32;19.50;;;12.60;;
12511;SDS011;6321;53.798;10.382;2023-04-15T01:31:08;18.47;;;12.90;;
12511;SDS011;6321;53.798;10.382;2023-04-15T01:33:35;18.70;;;12.43;;
12511;SDS011;6321;53.798;10.382;2023-04-15T01:36:02;18.30;;;13.07;;
12511;SDS011;6321;53.798;10.382;2023-04-15T01:38:28;19.03;;;13.10;;
12511;SDS011;6321;53.798;10.382;2023-04-15T01:40:54;19.47;;;13.47;;
12511;SDS011;6321;53.798;10.382;2023-04-15T01:43:20;21.43;;;14.00;;
12511;SDS011;6321;53.798;10.382;2023-04-15T01:45:46;18.47;;;13.30;;
12511;SDS011;6321;53.798;10.382;2023-04-15T01:48:12;24.80;;;14.03;;
12511;SDS011;6321;53.798;10.382;2023-04-15T01:50:38;25.37;;;14.70;;
12511;SDS011;6321;53.798;10.382;2023-04-15T01:53:04;22.03;;;14.63;;
12511;SDS011;6321;53.798;10.382;2023-04-15T01:55:29;26.17;;;14.47;;
12511;SDS011;6321;53.798;10.382;2023-04-15T01:57:56;25.57;;;14.40;;
12511;SDS011;6321;53.798;10.382;2023-04-15T02:00:22;24.73;;;15.93;;
12511;SDS011;6321;53.798;10.382;2023-04-15T02:02:48;23.83;;;15.77;;
12511;SDS011;6321;53.798;10.382;2023-04-15T02:05:15;29.90;;;16.93;;
12511;SDS011;6321;53.798;10.382;2023-04-15T02:07:41;26.03;;;16.30;;
12511;SDS011;6321;53.798;10.382;2023-04-15T02:10:07;27.10;;;16.33;;
12511;SDS011;6321;53.798;10.382;2023-04-15T02:12:34;29.60;;;16.17;;
12511;SDS011;6321;53.798;10.382;2023-04-15T02:15:00;29.17;;;16.80;;
12511;SDS011;6321;53.798;10.382;2023-04-15T02:17:26;29.47;;;17.43;;
12511;SDS011;6321;53.798;10.382;2023-04-15T02:19:54;30.47;;;16.93;;
12511;SDS011;6321;53.798;10.382;2023-04-15T02:22:21;29.57;;;17.30;;
12511;SDS011;6321;53.798;10.382;2023-04-15T02:24:46;29.27;;;17.37;;
12511;SDS011;6321;53.798;10.382;2023-04-15T02:27:16;29.70;;;18.17;;
12511;SDS011;6321;53.798;10.382;2023-04-15T02:29:43;33.80;;;18.60;;
12511;SDS011;6321;53.798;10.382;2023-04-15T02:32:09;29.93;;;17.57;;
12511;SDS011;6321;53.798;10.382;2023-04-15T02:34:35;29.37;;;18.63;;
12511;SDS011;6321;53.798;10.382;2023-04-15T02:37:05;31.70;;;18.63;;
12511;SDS011;6321;53.798;10.382;2023-04-15T02:39:31;31.80;;;18.13;;
12511;SDS011;6321;53.798;10.382;2023-04-15T02:41:57;35.73;;;19.43;;
12511;SDS011;6321;53.798;10.382;2023-04-15T02:44:24;29.93;;;18.27;;
12511;SDS011;6321;53.798;10.382;2023-04-15T02:46:50;34.97;;;18.33;;
12511;SDS011;6321;53.798;10.382;2023-04-15T02:49:17;36.23;;;19.87;;
12511;SDS011;6321;53.798;10.382;2023-04-15T02:51:43;39.43;;;19.57;;
12511;SDS011;6321;53.798;10.382;2023-04-15T02:54:13;31.97;;;19.07;;
12511;SDS011;6321;53.798;10.382;2023-04-15T02:56:39;38.73;;;20.30;;
12511;SDS011;6321;53.798;10.382;2023-04-15T02:59:05;37.53;;;20.17;;
12511;SDS011;6321;53.798;10.382;2023-04-15T03:01:31;39.07;;;21.07;;
12511;SDS011;6321;53.798;10.382;2023-04-15T03:03:57;37.87;;;21.10;;
12511;SDS011;6321;53.798;10.382;2023-04-15T03:06:23;45.87;;;23.33;;
12511;SDS011;6321;53.798;10.382;2023-04-15T03:08:49;40.43;;;22.40;;
12511;SDS011;6321;53.798;10.382;2023-04-15T03:11:15;42.53;;;21.40;;
12511;SDS011;6321;53.798;10.382;2023-04-15T03:13:41;44.50;;;23.57;;
12511;SDS011;6321;53.798;10.382;2023-04-15T03:16:08;46.87;;;24.20;;
12511;SDS011;6321;53.798;10.382;2023-04-15T03:18:33;45.17;;;22.80;;
12511;SDS011;6321;53.798;10.382;2023-04-15T03:21:00;44.93;;;24.87;;
12511;SDS011;6321;53.798;10.382;2023-04-15T03:23:26;42.67;;;24.17;;
12511;SDS011;6321;53.798;10.382;2023-04-15T03:25:52;44.67;;;23.27;;
12511;SDS011;6321;53.798;10.382;2023-04-15T03:28:22;43.43;;;22.83;;
12511;SDS011;6321;53.798;10.382;2023-04-15T03:30:48;45.83;;;25.67;;
12511;SDS011;6321;53.798;10.382;2023-04-15T03:33:14;43.73;;;25.03;;
12511;SDS011;6321;53.798;10.382;2023-04-15T03:35:40;44.13;;;24.47;;
12511;SDS011;6321;53.798;10.382;2023-04-15T03:38:06;48.50;;;24.73;;
12511;SDS011;6321;53.798;10.382;2023-04-15T03:40:32;46.40;;;25.80;;
12511;SDS011;6321;53.798;10.382;2023-04-15T03:42:58;49.97;;;27.40;;
12511;SDS011;6321;53.798;10.382;2023-04-15T03:45:24;52.83;;;27.63;;
12511;SDS011;6321;53.798;10.382;2023-04-15T03:47:50;56.83;;;29.70;;
12511;SDS011;6321;53.798;10.382;2023-04-15T03:50:16;51.17;;;28.27;;
12511;SDS011;6321;53.798;10.382;2023-04-15T03:52:43;50.33;;;29.33;;
12511;SDS011;6321;53.798;10.382;2023-04-15T03:55:09;59.73;;;29.57;;
12511;SDS011;6321;53.798;10.382;2023-04-15T03:57:35;54.67;;;30.23;;
12511;SDS011;6321;53.798;10.382;2023-04-15T04:00:03;55.67;;;30.37;;
12511;SDS011;6321;53.798;10.382;2023-04-15T04:02:29;53.33;;;30.40;;
12511;SDS011;6321;53.798;10.382;2023-04-15T04:04:55;55.77;;;31.97;;
12511;SDS011;6321;53.798;10.382;2023-04-15T04:07:22;55.03;;;31.67;;
12511;SDS011;6321;53.798;10.382;2023-04-15T04:09:48;53.77;;;31.60;;
12511;SDS011;6321;53.798;10.382;2023-04-15T04:12:14;53.67;;;31.83;;
12511;SDS011;6321;53.798;10.382;2023-04-15T04:14:40;51.03;;;31.20;;
12511;SDS011;6321;53.798;10.382;2023-04-15T04:17:06;47.10;;;30.73;;
12511;SDS011;6321;53.798;10.382;2023-04-15T04:19:32;56.70;;;32.83;;
12511;SDS011;6321;53.798;10.382;2023-04-15T04:21:58;59.93;;;32.87;;
12511;SDS011;6321;53.798;10.382;2023-04-15T04:24:24;58.57;;;34.87;;
12511;SDS011;6321;53.798;10.382;2023-04-15T04:26:50;56.03;;;32.90;;
12511;SDS011;6321;53.798;10.382;2023-04-15T04:29:16;60.07;;;34.30;;
12511;SDS011;6321;53.798;10.382;2023-04-15T04:31:42;58.80;;;34.83;;
12511;SDS011;6321;53.798;10.382;2023-04-15T04:34:08;57.90;;;34.47;;
12511;SDS011;6321;53.798;10.382;2023-04-15T04:36:34;53.97;;;31.37;;
12511;SDS011;6321;53.798;10.382;2023-04-15T04:39:00;61.43;;;36.43;;
12511;SDS011;6321;53.798;10.382;2023-04-15T04:41:26;63.00;;;36.57;;
12511;SDS011;6321;53.798;10.382;2023-04-15T04:43:52;57.43;;;36.53;;
12511;SDS011;6321;53.798;10.382;2023-04-15T04:46:18;64.53;;;37.47;;
12511;SDS011;6321;53.798;10.382;2023-04-15T04:48:44;60.57;;;34.50;;
12511;SDS011;6321;53.798;10.382;2023-04-15T04:51:10;69.20;;;37.37;;
12511;SDS011;6321;53.798;10.382;2023-04-15T04:53:36;68.77;;;37.10;;
12511;SDS011;6321;53.798;10.382;2023-04-15T04:56:02;64.23;;;36.13;;
12511;SDS011;6321;53.798;10.382;2023-04-15T04:58:28;69.40;;;36.97;;
12511;SDS011;6321;53.798;10.382;2023-04-15T05:00:54;73.77;;;39.50;;
12511;SDS011;6321;53.798;10.382;2023-04-15T05:03:20;70.17;;;38.50;;
12511;SDS011;6321;53.798;10.382;2023-04-15T05:05:46;69.37;;;38.43;;
12511;SDS011;6321;53.798;10.382;2023-04-15T05:08:13;69.10;;;37.97;;
12511;SDS011;6321;53.798;10.382;2023-04-15T05:10:39;69.70;;;36.57;;
12511;SDS011;6321;53.798;10.382;2023-04-15T05:13:05;73.67;;;39.93;;
12511;SDS011;6321;53.798;10.382;2023-04-15T05:15:31;74.10;;;37.93;;
12511;SDS011;6321;53.798;10.382;2023-04-15T05:17:59;76.10;;;39.97;;
12511;SDS011;6321;53.798;10.382;2023-04-15T05:20:25;77.40;;;38.87;;
12511;SDS011;6321;53.798;10.382;2023-04-15T05:22:51;68.40;;;36.90;;
12511;SDS011;6321;53.798;10.382;2023-04-15T05:25:17;75.00;;;38.83;;
12511;SDS011;6321;53.798;10.382;2023-04-15T05:27:43;74.13;;;40.87;;
12511;SDS011;6321;53.798;10.382;2023-04-15T05:30:09;76.63;;;39.77;;
12511;SDS011;6321;53.798;10.382;2023-04-15T05:32:34;70.73;;;39.83;;
12511;SDS011;6321;53.798;10.382;2023-04-15T05:35:00;83.33;;;41.93;;
12511;SDS011;6321;53.798;10.382;2023-04-15T05:37:27;78.23;;;41.07;;
12511;SDS011;6321;53.798;10.382;2023-04-15T05:39:53;76.63;;;42.70;;
12511;SDS011;6321;53.798;10.382;2023-04-15T05:42:18;76.40;;;41.63;;
12511;SDS011;6321;53.798;10.382;2023-04-15T05:44:44;80.00;;;41.50;;
12511;SDS011;6321;53.798;10.382;2023-04-15T05:47:10;78.30;;;41.23;;
12511;SDS011;6321;53.798;10.382;2023-04-15T05:49:36;75.23;;;41.20;;
12511;SDS011;6321;53.798;10.382;2023-04-15T05:52:02;85.87;;;43.63;;
12511;SDS011;6321;53.798;10.382;2023-04-15T05:54:28;84.40;;;44.10;;
12511;SDS011;6321;53.798;10.382;2023-04-15T05:56:54;83.77;;;42.63;;
12511;SDS011;6321;53.798;10.382;2023-04-15T05:59:21;87.47;;;45.33;;
12511;SDS011;6321;53.798;10.382;2023-04-15T06:01:47;84.53;;;43.57;;
12511;SDS011;6321;53.798;10.382;2023-04-15T06:04:13;79.97;;;43.80;;
12511;SDS011;6321;53.798;10.382;2023-04-15T06:06:39;91.23;;;44.47;;
12511;SDS011;6321;53.798;10.382;2023-04-15T06:09:05;86.50;;;44.50;;
12511;SDS011;6321;53.798;10.382;2023-04-15T06:11:31;88.03;;;44.40;;
12511;SDS011;6321;53.798;10.382;2023-04-15T06:13:57;91.43;;;46.53;;
12511;SDS011;6321;53.798;10.382;2023-04-15T06:16:23;84.47;;;44.70;;
12511;SDS011;6321;53.798;10.382;2023-04-15T06:18:50;91.70;;;44.93;;
12511;SDS011;6321;53.798;10.382;2023-04-15T06:21:16;84.03;;;44.23;;
12511;SDS011;6321;53.798;10.382;2023-04-15T06:23:41;84.47;;;45.30;;
12511;SDS011;6321;53.798;10.382;2023-04-15T06:26:07;85.43;;;42.83;;
12511;SDS011;6321;53.798;10.382;2023-04-15T06:28:33;86.00;;;45.90;;
12511;SDS011;6321;53.798;10.382;2023-04-15T06:30:59;90.37;;;45.23;;
12511;SDS011;6321;53.798;10.382;2023-04-15T06:33:25;86.57;;;45.63;;
12511;SDS011;6321;53.798;10.382;2023-04-15T06:35:51;88.33;;;44.73;;
12511;SDS011;6321;53.798;10.382;2023-04-15T06:38:17;85.27;;;44.10;;
12511;SDS011;6321;53.798;10.382;2023-04-15T06:40:43;80.83;;;41.93;;
12511;SDS011;6321;53.798;10.382;2023-04-15T06:43:09;79.30;;;43.70;;
12511;SDS011;6321;53.798;10.382;2023-04-15T06:45:35;79.43;;;44.17;;
12511;SDS011;6321;53.798;10.382;2023-04-15T06:48:02;82.17;;;44.80;;
12511;SDS011;6321;53.798;10.382;2023-04-15T06:50:28;77.10;;;42.30;;
12511;SDS011;6321;53.798;10.382;2023-04-15T06:52:54;73.80;;;41.97;;
12511;SDS011;6321;53.798;10.382;2023-04-15T06:55:21;71.70;;;39.63;;
12511;SDS011;6321;53.798;10.382;2023-04-15T06:57:47;79.60;;;44.07;;
12511;SDS011;6321;53.798;10.382;2023-04-15T07:00:13;82.33;;;41.27;;
12511;SDS011;6321;53.798;10.382;2023-04-15T07:02:39;79.27;;;43.20;;
12511;SDS011;6321;53.798;10.382;2023-04-15T07:05:05;85.87;;;42.57;;
12511;SDS011;6321;53.798;10.382;2023-04-15T07:07:32;85.27;;;44.67;;
12511;SDS011;6321;53.798;10.382;2023-04-15T07:09:58;85.20;;;45.80;;
12511;SDS011;6321;53.798;10.382;2023-04-15T07:12:25;79.23;;;43.90;;
12511;SDS011;6321;53.798;10.382;2023-04-15T07:14:51;87.87;;;45.73;;
12511;SDS011;6321;53.798;10.382;2023-04-15T07:17:17;82.87;;;45.93;;
12511;SDS011;6321;53.798;10.382;2023-04-15T07:19:43;85.63;;;43.53;;
12511;SDS011;6321;53.798;10.382;2023-04-15T07:22:09;83.33;;;44.87;;
12511;SDS011;6321;53.798;10.382;2023-04-15T07:24:35;80.50;;;45.33;;
12511;SDS011;6321;53.798;10.382;2023-04-15T07:27:01;84.07;;;45.13;;
12511;SDS011;6321;53.798;10.382;2023-04-15T07:29:28;81.23;;;42.30;;
12511;SDS011;6321;53.798;10.382;2023-04-15T07:31:53;85.00;;;45.83;;
12511;SDS011;6321;53.798;10.382;2023-04-15T07:34:21;88.57;;;45.23;;
12511;SDS011;6321;53.798;10.382;2023-04-15T07:36:47;90.33;;;47.43;;
12511;SDS011;6321;53.798;10.382;2023-04-15T07:39:14;84.03;;;45.57;;
12511;SDS011;6321;53.798;10.382;2023-04-15T07:41:40;88.47;;;44.93;;
12511;SDS011;6321;53.798;10.382;2023-04-15T07:44:06;88.03;;;45.87;;
12511;SDS011;6321;53.798;10.382;2023-04-15T07:46:33;89.47;;;44.90;;
12511;SDS011;6321;53.798;10.382;2023-04-15T07:48:59;87.03;;;46.93;;
12511;SDS011;6321;53.798;10.382;2023-04-15T07:51:25;90.10;;;46.07;;
12511;SDS011;6321;53.798;10.382;2023-04-15T07:53:51;91.80;;;47.40;;
12511;SDS011;6321;53.798;10.382;2023-04-15T07:56:17;85.50;;;46.67;;
12511;SDS011;6321;53.798;10.382;2023-04-15T07:58:43;81.57;;;46.43;;
12511;SDS011;6321;53.798;10.382;2023-04-15T08:01:09;85.20;;;46.53;;
12511;SDS011;6321;53.798;10.382;2023-04-15T08:03:35;80.47;;;45.67;;
12511;SDS011;6321;53.798;10.382;2023-04-15T08:06:01;82.33;;;44.93;;
12511;SDS011;6321;53.798;10.382;2023-04-15T08:08:27;80.93;;;44.50;;
12511;SDS011;6321;53.798;10.382;2023-04-15T08:10:53;79.87;;;46.30;;
12511;SDS011;6321;53.798;10.382;2023-04-15T08:13:19;80.40;;;44.10;;
12511;SDS011;6321;53.798;10.382;2023-04-15T08:15:45;79.10;;;44.97;;
12511;SDS011;6321;53.798;10.382;2023-04-15T08:18:11;79.27;;;45.97;;
12511;SDS011;6321;53.798;10.382;2023-04-15T08:20:37;78.03;;;45.63;;
12511;SDS011;6321;53.798;10.382;2023-04-15T08:23:03;75.83;;;43.53;;
12511;SDS011;6321;53.798;10.382;2023-04-15T08:25:29;75.60;;;41.10;;
12511;SDS011;6321;53.798;10.382;2023-04-15T08:27:55;70.90;;;41.67;;
12511;SDS011;6321;53.798;10.382;2023-04-15T08:30:21;69.43;;;39.77;;
12511;SDS011;6321;53.798;10.382;2023-04-15T08:32:48;75.03;;;40.23;;
12511;SDS011;6321;53.798;10.382;2023-04-15T08:35:13;62.93;;;36.40;;
12511;SDS011;6321;53.798;10.382;2023-04-15T08:37:39;63.23;;;36.10;;
12511;SDS011;6321;53.798;10.382;2023-04-15T08:40:06;61.87;;;35.73;;
12511;SDS011;6321;53.798;10.382;2023-04-15T08:42:40;57.40;;;36.30;;
12511;SDS011;6321;53.798;10.382;2023-04-15T08:45:07;65.03;;;37.40;;
12511;SDS011;6321;53.798;10.382;2023-04-15T08:47:35;62.17;;;36.90;;
12511;SDS011;6321;53.798;10.382;2023-04-15T08:50:07;61.27;;;35.10;;
12511;SDS011;6321;53.798;10.382;2023-04-15T08:52:33;63.67;;;36.60;;
12511;SDS011;6321;53.798;10.382;2023-04-15T08:55:01;55.70;;;34.10;;
12511;SDS011;6321;53.798;10.382;2023-04-15T08:57:27;58.43;;;34.73;;
12511;SDS011;6321;53.798;10.382;2023-04-15T08:59:56;57.47;;;35.03;;
12511;SDS011;6321;53.798;10.382;2023-04-15T09:02:22;54.73;;;34.10;;
12511;SDS011;6321;53.798;10.382;2023-04-15T09:04:49;59.87;;;34.03;;
12511;SDS011;6321;53.798;10.382;2023-04-15T09:07:15;51.30;;;33.13;;
12511;SDS011;6321;53.798;10.382;2023-04-15T09:09:41;48.97;;;32.30;;
12511;SDS011;6321;53.798;10.382;2023-04-15T09:12:08;53.57;;;35.47;;
12511;SDS011;6321;53.798;10.382;2023-04-15T09:14:34;51.97;;;34.00;;
12511;SDS011;6321;53.798;10.382;2023-04-15T09:17:01;48.13;;;31.87;;
12511;SDS011;6321;53.798;10.382;2023-04-15T09:19:29;43.87;;;28.37;;
12511;SDS011;6321;53.798;10.382;2023-04-15T09:21:56;47.80;;;30.73;;
12511;SDS011;6321;53.798;10.382;2023-04-15T09:24:23;43.77;;;30.93;;
12511;SDS011;6321;53.798;10.382;2023-04-15T09:26:53;42.60;;;30.37;;
12511;SDS011;6321;53.798;10.382;2023-04-15T09:29:25;46.27;;;28.77;;
12511;SDS011;6321;53.798;10.382;2023-04-15T09:31:51;48.20;;;30.00;;
12511;SDS011;6321;53.798;10.382;2023-04-15T09:34:17;42.97;;;29.23;;
12511;SDS011;6321;53.798;10.382;2023-04-15T09:39:13;42.57;;;28.30;;
12511;SDS011;6321;53.798;10.382;2023-04-15T09:41:40;40.17;;;28.67;;
12511;SDS011;6321;53.798;10.382;2023-04-15T09:44:07;36.87;;;27.37;;
12511;SDS011;6321;53.798;10.382;2023-04-15T09:46:46;39.50;;;28.43;;
12511;SDS011;6321;53.798;10.382;2023-04-15T09:49:12;37.93;;;27.00;;
12511;SDS011;6321;53.798;10.382;2023-04-15T09:51:38;35.97;;;27.20;;
12511;SDS011;6321;53.798;10.382;2023-04-15T09:54:04;33.40;;;25.37;;
12511;SDS011;6321;53.798;10.382;2023-04-15T09:56:33;30.57;;;26.27;;
12511;SDS011;6321;53.798;10.382;2023-04-15T09:59:00;33.53;;;25.23;;
12511;SDS011;6321;53.798;10.382;2023-04-15T10:01:26;31.17;;;24.73;;
12511;SDS011;6321;53.798;10.382;2023-04-15T10:03:52;30.00;;;24.17;;
12511;SDS011;6321;53.798;10.382;2023-04-15T10:06:18;27.87;;;20.17;;
12511;SDS011;6321;53.798;10.382;2023-04-15T10:08:45;32.67;;;24.07;;
12511;SDS011;6321;53.798;10.382;2023-04-15T10:11:12;27.73;;;21.87;;
12511;SDS011;6321;53.798;10.382;2023-04-15T10:13:38;24.40;;;20.83;;
12511;SDS011;6321;53.798;10.382;2023-04-15T10:16:05;25.03;;;19.63;;
12511;SDS011;6321;53.798;10.382;2023-04-15T10:18:33;24.90;;;20.00;;
12511;SDS011;6321;53.798;10.382;2023-04-15T10:20:59;22.97;;;19.53;;
12511;SDS011;6321;53.798;10.382;2023-04-15T10:23:25;23.43;;;19.13;;
12511;SDS011;6321;53.798;10.382;2023-04-15T10:25:52;25.80;;;19.00;;
12511;SDS011;6321;53.798;10.382;2023-04-15T10:28:19;22.17;;;18.10;;
12511;SDS011;6321;53.798;10.382;2023-04-15T10:30:46;20.93;;;18.73;;
12511;SDS011;6321;53.798;10.382;2023-04-15T10:33:13;21.83;;;17.70;;
12511;SDS011;6321;53.798;10.382;2023-04-15T10:35:41;21.83;;;18.50;;
12511;SDS011;6321;53.798;10.382;2023-04-15T10:38:30;21.20;;;18.10;;
12511;SDS011;6321;53.798;10.382;2023-04-15T10:41:10;20.33;;;17.40;;
12511;SDS011;6321;53.798;10.382;2023-04-15T10:43:37;20.50;;;17.80;;
12511;SDS011;6321;53.798;10.382;2023-04-15T10:46:04;19.97;;;17.77;;
12511;SDS011;6321;53.798;10.382;2023-04-15T10:48:30;19.80;;;16.63;;
12511;SDS011;6321;53.798;10.382;2023-04-15T10:50:57;18.83;;;16.70;;
12511;SDS011;6321;53.798;10.382;2023-04-15T10:53:27;20.13;;;16.83;;
12511;SDS011;6321;53.798;10.382;2023-04-15T10:55:53;20.27;;;17.50;;
12511;SDS011;6321;53.798;10.382;2023-04-15T10:58:22;19.60;;;16.43;;
12511;SDS011;6321;53.798;10.382;2023-04-15T11:00:49;19.03;;;16.90;;
12511;SDS011;6321;53.798;10.382;2023-04-15T11:03:37;19.80;;;17.60;;
12511;SDS011;6321;53.798;10.382;2023-04-15T11:06:04;19.07;;;17.07;;
12511;SDS011;6321;53.798;10.382;2023-04-15T11:11:18;22.13;;;17.33;;
12511;SDS011;6321;53.798;10.382;2023-04-15T11:13:47;20.07;;;16.83;;
12511;SDS011;6321;53.798;10.382;2023-04-15T11:16:13;21.87;;;16.90;;
12511;SDS011;6321;53.798;10.382;2023-04-15T11:18:39;21.23;;;16.33;;
12511;SDS011;6321;53.798;10.382;2023-04-15T11:21:06;22.27;;;17.77;;
12511;SDS011;6321;53.798;10.382;2023-04-15T11:26:00;23.30;;;18.73;;
12511;SDS011;6321;53.798;10.382;2023-04-15T11:28:29;23.20;;;18.17;;
12511;SDS011;6321;53.798;10.382;2023-04-15T11:30:56;21.70;;;18.27;;
12511;SDS011;6321;53.798;10.382;2023-04-15T11:33:23;22.77;;;17.03;;
12511;SDS011;6321;53.798;10.382;2023-04-15T11:35:50;23.70;;;18.83;;
12511;SDS011;6321;53.798;10.382;2023-04-15T11:38:19;24.53;;;19.87;;
12511;SDS011;6321;53.798;10.382;2023-04-15T11:40:45;22.93;;;19.13;;
12511;SDS011;6321;53.798;10.382;2023-04-15T11:43:12;24.93;;;19.73;;
12511;SDS011;6321;53.798;10.382;2023-04-15T11:45:51;24.57;;;20.50;;
12511;SDS011;6321;53.798;10.382;2023-04-15T11:48:18;23.60;;;20.47;;
12511;SDS011;6321;53.798;10.382;2023-04-15T11:50:44;27.07;;;22.20;;
12511;SDS011;6321;53.798;10.382;2023-04-15T11:53:11;25.60;;;21.00;;
12511;SDS011;6321;53.798;10.382;2023-04-15T11:55:41;29.43;;;21.10;;
12511;SDS011;6321;53.798;10.382;2023-04-15T11:58:15;24.83;;;21.27;;
12511;SDS011;6321;53.798;10.382;2023-04-15T12:00:49;24.00;;;19.37;;
12511;SDS011;6321;53.798;10.382;2023-04-15T12:14:04;23.93;;;18.27;;
12511;SDS011;6321;53.798;10.382;2023-04-15T12:16:30;22.70;;;17.27;;
12511;SDS011;6321;53.798;10.382;2023-04-15T12:18:56;18.67;;;16.23;;
12511;SDS011;6321;53.798;10.382;2023-04-15T12:21:24;21.07;;;16.53;;
12511;SDS011;6321;53.798;10.382;2023-04-15T12:26:16;23.23;;;16.87;;
12511;SDS011;6321;53.798;10.382;2023-04-15T12:28:43;24.17;;;18.30;;
12511;SDS011;6321;53.798;10.382;2023-04-15T12:31:09;22.40;;;17.90;;
12511;SDS011;6321;53.798;10.382;2023-04-15T12:33:36;18.87;;;16.47;;
12511;SDS011;6321;53.798;10.382;2023-04-15T12:36:03;19.63;;;15.30;;
12511;SDS011;6321;53.798;10.382;2023-04-15T12:38:29;17.23;;;15.43;;
12511;SDS011;6321;53.798;10.382;2023-04-15T12:40:56;17.00;;;15.20;;
12511;SDS011;6321;53.798;10.382;2023-04-15T12:43:22;20.77;;;16.97;;
12511;SDS011;6321;53.798;10.382;2023-04-15T12:45:50;18.80;;;15.67;;
12511;SDS011;6321;53.798;10.382;2023-04-15T12:48:16;19.37;;;15.70;;
12511;SDS011;6321;53.798;10.382;2023-04-15T12:50:42;17.83;;;14.93;;
12511;SDS011;6321;53.798;10.382;2023-04-15T12:53:08;18.17;;;16.30;;
12511;SDS011;6321;53.798;10.382;2023-04-15T12:55:34;20.10;;;16.63;;
12511;SDS011;6321;53.798;10.382;2023-04-15T12:58:00;17.33;;;15.07;;
12511;SDS011;6321;53.798;10.382;2023-04-15T13:00:26;17.17;;;15.47;;
12511;SDS011;6321;53.798;10.382;2023-04-15T13:02:52;18.00;;;15.67;;
12511;SDS011;6321;53.798;10.382;2023-04-15T13:05:18;15.90;;;13.60;;
12511;SDS011;6321;53.798;10.382;2023-04-15T13:07:44;17.43;;;15.63;;
12511;SDS011;6321;53.798;10.382;2023-04-15T13:10:10;18.17;;;14.93;;
12511;SDS011;6321;53.798;10.382;2023-04-15T13:12:36;16.20;;;14.27;;
12511;SDS011;6321;53.798;10.382;2023-04-15T13:15:02;14.93;;;13.33;;
12511;SDS011;6321;53.798;10.382;2023-04-15T13:17:29;13.43;;;11.93;;
12511;SDS011;6321;53.798;10.382;2023-04-15T13:19:55;16.33;;;13.13;;
12511;SDS011;6321;53.798;10.382;2023-04-15T13:22:21;15.30;;;13.60;;
12511;SDS011;6321;53.798;10.382;2023-04-15T13:24:47;15.87;;;12.63;;
12511;SDS011;6321;53.798;10.382;2023-04-15T13:27:13;14.63;;;13.10;;
12511;SDS011;6321;53.798;10.382;2023-04-15T13:29:39;14.37;;;12.97;;
12511;SDS011;6321;53.798;10.382;2023-04-15T13:32:05;15.10;;;13.00;;
12511;SDS011;6321;53.798;10.382;2023-04-15T13:34:31;14.10;;;12.67;;
12511;SDS011;6321;53.798;10.382;2023-04-15T13:36:57;15.43;;;13.20;;
12511;SDS011;6321;53.798;10.382;2023-04-15T13:39:23;14.20;;;12.80;;
12511;SDS011;6321;53.798;10.382;2023-04-15T13:41:49;16.70;;;13.97;;
12511;SDS011;6321;53.798;10.382;2023-04-15T13:44:15;19.40;;;14.37;;
12511;SDS011;6321;53.798;10.382;2023-04-15T13:46:41;14.57;;;13.03;;
12511;SDS011;6321;53.798;10.382;2023-04-15T13:49:07;14.77;;;13.27;;
12511;SDS011;6321;53.798;10.382;2023-04-15T13:51:33;14.60;;;13.03;;
12511;SDS011;6321;53.798;10.382;2023-04-15T13:54:00;14.10;;;12.50;;
12511;SDS011;6321;53.798;10.382;2023-04-15T13:56:27;15.73;;;12.33;;
12511;SDS011;6321;53.798;10.382;2023-04-15T13:58:53;17.60;;;12.47;;
12511;SDS011;6321;53.798;10.382;2023-04-15T14:01:22;16.37;;;14.80;;
12511;SDS011;6321;53.798;10.382;2023-04-15T14:03:48;16.20;;;14.50;;
12511;SDS011;6321;53.798;10.382;2023-04-15T14:06:15;15.97;;;12.47;;
12511;SDS011;6321;53.798;10.382;2023-04-15T14:08:41;18.23;;;15.27;;
12511;SDS011;6321;53.798;10.382;2023-04-15T14:11:07;17.93;;;14.33;;
12511;SDS011;6321;53.798;10.382;2023-04-15T14:13:33;15.97;;;14.27;;
12511;SDS011;6321;53.798;10.382;2023-04-15T14:15:59;15.50;;;13.77;;
12511;SDS011;6321;53.798;10.382;2023-04-15T14:18:25;17.00;;;14.33;;
12511;SDS011;6321;53.798;10.382;2023-04-15T14:20:51;15.57;;;13.40;;
12511;SDS011;6321;53.798;10.382;2023-04-15T14:23:17;15.63;;;13.63;;
12511;SDS011;6321;53.798;10.382;2023-04-15T14:25:43;15.00;;;13.40;;
12511;SDS011;6321;53.798;10.382;2023-04-15T14:28:09;16.80;;;13.33;;
12511;SDS011;6321;53.798;10.382;2023-04-15T14:30:35;14.50;;;13.00;;
12511;SDS011;6321;53.798;10.382;2023-04-15T14:33:01;14.37;;;12.57;;
12511;SDS011;6321;53.798;10.382;2023-04-15T14:35:27;15.10;;;13.57;;
12511;SDS011;6321;53.798;10.382;2023-04-15T14:37:53;13.53;;;11.77;;
12511;SDS011;6321;53.798;10.382;2023-04-15T14:40:20;16.50;;;14.70;;